Date,TemperatureHighF,TemperatureAvgF,TemperatureLowF,DewpointHighF,DewpointAvgF,DewpointLowF,HumidityHigh,HumidityAvg,HumidityLow,PressureMaxIn,PressureMinIn,WindSpeedMaxMPH,WindSpeedAvgMPH,GustSpeedMaxMPH,PrecipitationSumIn
2013-1-1,24,14,8,7,5,2,81,68,41,0.00,40.00,6,4,9,0.03
2013-1-2,24,15,8,8,5,0,86,67,44,0.00,40.00,10,5,14,0.00
2013-1-3,19,11,3,0,-1,-4,76,59,41,0.00,40.00,12,7,17,0.00
2013-1-4,25,14,5,3,-1,-4,67,52,30,0.00,40.00,10,5,13,0.00
2013-1-5,30,16,5,6,2,-2,74,54,31,0.00,40.00,8,4,12,0.00
2013-1-6,29,19,11,6,4,1,69,52,37,0.00,40.00,9,4,11,0.00
2013-1-7,36,23,12,11,6,3,71,48,28,0.00,40.00,12,5,16,0.00
2013-1-8,39,25,16,15,10,5,67,53,36,0.00,40.00,9,5,12,0.00
2013-1-9,41,26,18,16,13,11,77,59,33,0.00,40.00,11,6,16,0.00
2013-1-10,38,31,22,24,16,10,71,55,32,0.00,40.00,17,9,35,0.00
2013-1-11,34,19,11,26,9,-4,94,67,47,0.00,40.00,24,13,42,0.00
2013-1-12,19,10,4,2,-2,-6,75,57,39,0.00,40.00,8,4,13,0.00
2013-1-13,12,6,1,3,-2,-11,82,68,56,0.00,40.00,7,3,10,0.00
2013-1-14,10,1,-6,-9,-12,-15,66,54,40,0.00,40.00,12,7,17,0.00
2013-1-15,14,3,-6,-4,-10,-16,64,54,39,0.00,40.00,12,6,17,0.00
2013-1-16,26,14,5,7,0,-6,67,55,42,0.00,40.00,8,6,13,0.01
2013-1-17,32,22,12,11,8,5,75,56,39,0.00,40.00,10,5,15,0.01
2013-1-18,37,26,15,14,11,9,77,55,35,0.00,40.00,8,4,11,0.00
2013-1-19,41,26,16,14,12,10,80,56,30,0.00,40.00,7,4,11,0.00
2013-1-20,40,27,16,13,10,8,74,51,29,0.00,40.00,7,3,9,0.00
2013-1-21,43,28,17,11,8,2,65,44,24,0.00,40.00,9,4,13,0.00
2013-1-22,46,30,20,12,9,7,61,43,22,0.00,40.00,8,4,9,0.00
2013-1-23,42,30,20,10,8,4,59,40,24,0.00,40.00,8,4,12,0.00
2013-1-24,36,30,26,31,18,8,97,63,42,0.00,40.00,4,2,7,0.00
2013-1-25,38,33,30,35,32,29,97,96,86,0.00,40.00,5,2,6,0.10
2013-1-26,39,34,31,37,33,30,98,96,90,0.00,40.00,7,3,12,0.32
2013-1-27,39,35,31,35,32,30,98,89,71,0.00,40.00,14,4,33,0.31
2013-1-28,37,28,17,32,26,15,97,90,69,0.00,40.00,16,9,33,0.01
2013-1-29,24,16,12,15,10,4,91,75,57,0.00,40.00,12,5,16,0.07
2013-1-30,26,19,12,15,12,8,85,73,55,0.00,40.00,7,4,14,0.01
2013-1-31,39,32,22,22,20,16,78,62,47,0.00,40.00,8,4,13,0.01
2013-2-1,41,31,23,22,20,19,90,66,46,0.00,40.00,9,3,15,0.01
2013-2-2,38,29,20,21,19,15,89,66,43,0.00,40.00,10,5,14,0.00
2013-2-3,38,29,21,21,19,16,84,67,48,0.00,40.00,8,3,9,0.00
2013-2-4,41,30,21,23,19,14,89,66,40,0.00,40.00,8,4,11,0.00
2013-2-5,46,32,21,22,18,14,86,60,32,0.00,40.00,8,5,10,0.00
2013-2-6,43,33,26,29,22,18,97,65,45,0.00,40.00,7,4,16,0.00
2013-2-7,39,30,21,28,18,11,97,65,38,0.00,40.00,12,6,17,0.00
2013-2-8,45,34,24,28,17,11,91,53,32,0.00,40.00,12,7,33,0.00
2013-2-9,34,28,22,27,21,16,91,76,48,0.00,40.00,12,5,20,0.00
2013-2-10,37,24,18,20,17,14,94,76,42,0.00,40.00,12,3,17,0.05
2013-2-11,30,20,15,20,15,3,93,79,54,0.00,40.00,9,6,13,0.13
2013-2-12,31,17,7,7,3,0,73,54,33,0.00,40.00,10,6,15,0.01
2013-2-13,37,26,19,15,11,7,64,54,39,0.00,40.00,9,4,14,0.00
2013-2-14,43,30,22,20,14,8,72,53,36,0.00,40.00,10,4,14,0.00
2013-2-15,42,29,22,15,12,9,64,48,31,0.00,40.00,7,4,13,0.00
2013-2-16,44,31,18,17,14,11,76,50,30,0.00,40.00,9,4,11,0.00
2013-2-17,46,33,24,16,13,10,64,46,24,0.00,40.00,15,6,21,0.00
2013-2-18,35,26,18,12,6,-2,60,43,24,0.00,40.00,13,6,21,0.00
2013-2-19,45,29,17,9,5,3,56,38,20,0.00,40.00,11,5,14,0.00
2013-2-20,40,32,28,25,13,6,84,47,29,0.00,40.00,10,5,25,0.00
2013-2-21,33,28,24,25,19,14,95,71,49,0.00,40.00,10,5,15,0.02
2013-2-22,29,23,19,16,13,6,83,68,39,0.00,40.00,12,7,19,0.02
2013-2-23,28,21,14,23,14,6,95,77,59,0.00,40.00,9,5,26,0.00
2013-2-24,25,20,14,19,14,8,92,78,63,0.00,40.00,18,8,26,0.14
2013-2-25,36,23,10,14,9,6,84,57,33,0.00,40.00,12,5,23,0.01
2013-2-26,28,23,18,19,13,9,92,66,44,0.00,40.00,14,7,21,0.02
2013-2-27,35,22,12,12,9,6,79,59,29,0.00,40.00,10,6,16,0.02
2013-2-28,37,24,12,11,7,3,71,48,27,0.00,40.00,10,5,14,0.00
2013-3-1,44,33,26,23,19,9,74,57,43,0.00,40.00,8,4,11,0.00
2013-3-2,51,37,25,26,22,20,80,57,36,0.00,40.00,8,4,10,0.00
2013-3-3,50,40,34,33,25,22,91,56,34,0.00,40.00,12,5,23,0.02
2013-3-4,42,33,22,36,24,9,97,72,47,0.00,40.00,18,8,29,0.13
2013-3-5,45,29,15,11,8,5,71,44,22,0.00,40.00,12,6,15,0.02
2013-3-6,54,42,29,20,13,6,42,32,24,0.00,40.00,14,6,29,0.00
2013-3-7,56,49,43,20,14,9,34,25,16,0.00,40.00,12,7,28,0.00
2013-3-8,47,41,34,34,21,9,97,51,22,0.00,40.00,15,7,28,0.06
2013-3-9,35,30,27,32,25,13,97,83,53,0.00,40.00,20,9,31,0.06
2013-3-10,40,32,22,23,16,12,65,53,36,0.00,40.00,17,9,28,0.01
2013-3-11,45,35,25,24,21,18,77,57,41,0.00,40.00,10,4,17,0.00
2013-3-12,49,42,35,27,24,21,61,50,40,0.00,40.00,7,3,14,0.00
2013-3-13,55,44,32,29,24,19,76,49,26,0.00,40.00,8,4,10,0.00
2013-3-14,62,48,34,27,24,21,62,41,23,0.00,40.00,9,5,18,0.00
2013-3-15,62,51,42,35,25,22,52,38,22,0.00,40.00,9,4,19,0.00
2013-3-16,56,49,43,33,27,22,58,43,30,0.00,40.00,12,4,30,0.00
2013-3-17,50,42,35,32,20,5,82,46,19,0.00,40.00,21,10,40,0.00
2013-3-18,46,39,31,12,8,3,41,28,20,0.00,40.00,19,11,36,0.00
2013-3-19,48,40,34,14,6,-2,41,26,13,0.00,40.00,10,6,23,0.00
2013-3-20,50,39,28,27,9,-1,54,29,20,0.00,40.00,9,6,20,0.00
2013-3-21,46,37,30,36,24,1,97,65,18,0.00,40.00,16,6,32,0.09
2013-3-22,43,32,24,18,13,-1,68,48,16,0.00,40.00,21,8,45,0.02
2013-3-23,27,23,18,10,5,-2,63,46,30,0.00,40.00,14,7,24,0.00
2013-3-24,32,21,14,11,6,4,66,52,33,0.00,40.00,14,8,21,0.00
2013-3-25,39,25,12,6,2,-13,67,41,10,0.00,40.00,11,7,17,0.00
2013-3-26,55,38,24,14,7,-2,43,27,19,0.00,40.00,13,7,22,0.00
2013-3-27,59,46,35,26,19,10,67,38,14,0.00,40.00,13,8,23,0.00
2013-3-28,63,58,51,18,16,14,24,19,16,0.00,40.00,8,6,22,0.00
2013-3-29,64,52,43,29,22,16,50,32,20,0.00,40.00,14,6,33,0.00
2013-3-30,60,49,37,31,25,-100,71,45,23,0.00,40.00,10,6,22,0.00
2013-3-31,63,48,36,26,20,-1,60,37,9,0.00,40.00,11,7,22,0.00
2013-4-1,59,49,40,34,23,12,65,37,23,0.00,40.00,17,7,31,0.00
2013-4-2,48,42,38,33,30,28,75,63,47,0.00,40.00,13,6,20,0.00
2013-4-3,60,46,37,32,27,17,78,51,24,0.00,40.00,10,5,18,0.00
2013-4-4,62,51,38,23,20,17,50,31,19,0.00,40.00,11,7,20,0.00
2013-4-5,62,54,44,33,22,16,62,31,19,0.00,40.00,16,7,32,0.00
2013-4-6,57,47,36,32,26,17,75,48,21,0.00,40.00,17,8,33,0.00
2013-4-7,59,48,36,34,26,6,87,50,15,0.00,40.00,20,9,36,0.00
2013-4-8,55,46,37,38,22,6,98,45,16,0.00,40.00,16,9,38,0.18
2013-4-9,38,25,15,29,18,5,91,72,62,0.00,40.00,21,13,27,0.08
2013-4-10,38,25,13,16,8,3,65,50,28,0.00,40.00,17,11,25,0.00
2013-4-11,50,38,29,31,22,14,64,54,43,0.00,40.00,8,4,15,0.00
2013-4-12,56,45,36,32,25,17,82,50,26,0.00,40.00,9,5,24,0.00
2013-4-13,59,49,35,37,20,15,83,35,20,0.00,40.00,28,9,54,0.06
2013-4-14,48,40,33,38,16,5,97,42,18,0.00,40.00,14,9,27,0.18
2013-4-15,41,34,30,33,26,12,97,79,30,0.00,40.00,14,7,20,0.31
2013-4-16,45,34,23,35,29,22,97,84,51,0.00,40.00,17,11,32,0.14
2013-4-17,29,23,18,22,16,9,95,77,48,0.00,40.00,14,11,24,0.08
2013-4-18,35,24,15,14,9,5,68,54,37,0.00,40.00,10,6,22,0.00
2013-4-19,44,33,20,24,16,12,72,51,34,0.00,40.00,9,5,19,0.00
2013-4-20,50,39,32,35,31,24,90,74,49,0.00,40.00,10,6,19,0.00
2013-4-21,56,44,32,37,26,15,92,57,20,0.00,40.00,12,6,22,0.00
2013-4-22,58,50,38,27,22,19,56,33,23,0.00,40.00,17,9,34,0.00
2013-4-23,42,35,26,26,14,8,68,43,25,0.00,40.00,19,11,28,0.00
2013-4-24,52,40,27,12,10,8,50,31,19,0.00,40.00,10,6,22,0.00
2013-4-25,62,47,33,14,11,8,41,25,12,0.00,40.00,12,8,24,0.00
2013-4-26,66,53,40,16,12,8,34,20,12,0.00,40.00,14,7,21,0.00
2013-4-27,67,55,40,17,13,7,35,20,12,0.00,40.00,10,7,19,0.00
2013-4-28,70,58,45,21,17,7,32,20,13,0.00,40.00,12,7,24,0.00
2013-4-29,72,63,53,25,21,17,30,21,13,0.00,40.00,16,8,30,0.00
2013-4-30,69,62,40,35,22,18,81,24,16,0.00,40.00,23,11,37,0.02
2013-5-1,45,38,32,35,23,10,94,62,24,0.00,40.00,22,10,30,0.13
2013-5-2,51,39,29,14,10,6,47,31,17,0.00,40.00,20,11,25,0.04
2013-5-3,63,46,31,15,10,1,45,26,8,0.00,40.00,13,7,20,0.00
2013-5-4,68,54,39,22,13,4,40,21,10,0.00,40.00,14,6,26,0.00
2013-5-5,67,58,48,27,20,8,43,25,12,0.00,40.00,18,10,28,0.00
2013-5-6,62,52,43,42,32,13,94,51,17,0.00,40.00,12,7,25,0.12
2013-5-7,55,44,40,41,39,35,94,85,57,0.00,40.00,15,6,23,0.28
2013-5-8,48,42,39,40,38,37,95,87,68,0.00,40.00,11,5,18,0.26
2013-5-9,60,47,39,41,38,34,95,74,38,0.00,40.00,13,6,24,0.36
2013-5-10,63,52,42,39,32,-100,75,51,29,0.00,40.00,14,6,27,0.21
2013-5-11,68,56,44,33,28,-100,57,38,22,0.00,40.00,10,5,22,0.00
2013-5-12,74,62,49,35,31,27,50,33,20,0.00,40.00,9,5,16,0.00
2013-5-13,78,66,50,36,31,23,52,29,13,0.00,40.00,10,6,20,0.00
2013-5-14,80,66,53,37,32,27,46,30,15,0.00,40.00,19,8,31,0.00
2013-5-15,74,63,55,43,38,33,57,41,22,0.00,40.00,21,9,33,0.00
2013-5-16,75,58,48,42,18,-100,71,40,17,0.00,40.00,14,9,28,0.00
2013-5-17,73,66,58,28,16,-100,31,17,10,0.00,40.00,19,10,37,0.00
2013-5-18,60,54,46,39,33,25,69,46,26,0.00,40.00,17,8,33,0.17
2013-5-19,59,48,41,37,34,28,78,61,36,0.00,40.00,17,5,26,0.06
2013-5-20,56,48,40,41,36,33,78,64,46,0.00,40.00,12,8,25,0.10
2013-5-21,67,55,43,36,32,23,71,44,23,0.00,40.00,11,7,20,0.06
2013-5-22,76,63,48,32,25,15,53,27,12,0.00,40.00,12,8,31,0.00
2013-5-23,78,70,61,22,15,1,19,13,5,0.00,40.00,20,13,43,0.00
2013-5-24,74,67,59,18,13,3,17,12,7,0.00,40.00,14,8,30,0.00
2013-5-25,77,66,53,16,13,5,22,13,8,0.00,40.00,13,8,28,0.00
2013-5-26,77,66,53,20,14,5,24,13,8,0.00,40.00,12,6,30,0.00
2013-5-27,74,66,57,19,13,6,18,13,10,0.00,40.00,14,7,30,0.00
2013-5-28,72,60,44,40,24,15,85,27,15,0.00,40.00,18,9,34,0.08
2013-5-29,60,50,42,42,34,22,95,60,24,0.00,40.00,15,8,27,0.17
2013-5-30,64,55,46,33,24,19,54,31,18,0.00,40.00,19,10,36,0.01
2013-5-31,67,58,51,23,15,3,31,20,8,0.00,40.00,16,10,33,0.00
2013-6-1,69,58,45,25,22,14,38,25,18,0.00,40.00,15,8,27,0.00
2013-6-2,81,65,47,29,24,15,47,24,9,0.00,40.00,11,7,22,0.00
2013-6-3,81,70,59,33,24,18,25,18,10,0.00,40.00,18,7,51,0.00
2013-6-4,81,68,52,29,23,18,27,19,11,0.00,40.00,18,8,35,0.00
2013-6-5,79,66,53,33,27,17,38,24,10,0.00,40.00,11,8,22,0.00
2013-6-6,80,66,49,33,28,23,43,26,16,0.00,40.00,12,8,20,0.00
2013-6-7,82,69,54,35,30,25,42,25,13,0.00,40.00,12,6,22,0.00
2013-6-8,86,73,59,38,31,22,36,23,10,0.00,40.00,14,6,24,0.00
2013-6-9,88,75,60,34,28,24,32,19,11,0.00,40.00,16,6,24,0.00
2013-6-10,90,78,61,35,27,13,33,17,8,0.00,40.00,18,8,30,0.00
2013-6-11,82,77,70,19,16,9,14,10,9,0.00,40.00,24,13,40,0.00
2013-6-12,87,72,57,27,22,13,29,17,8,0.00,40.00,14,8,26,0.00
2013-6-13,83,75,63,28,24,16,24,15,11,0.00,40.00,17,7,38,0.00
2013-6-14,82,74,64,25,17,2,21,13,5,0.00,40.00,15,7,27,0.00
2013-6-15,81,69,55,33,19,5,25,15,8,0.00,40.00,17,10,40,0.00
2013-6-16,82,72,61,39,34,29,38,26,15,0.00,40.00,16,7,25,0.00
2013-6-17,84,68,55,39,34,22,52,31,10,0.00,40.00,15,10,28,0.00
2013-6-18,85,72,57,35,23,3,39,20,6,0.00,40.00,13,9,32,0.00
2013-6-19,83,74,62,17,9,5,14,9,5,0.00,40.00,16,10,39,0.00
2013-6-20,80,65,55,19,14,8,23,15,8,0.00,40.00,16,8,28,0.00
2013-6-22,81,76,69,21,16,12,16,10,8,0.00,40.00,18,12,37,0.00
2013-6-23,83,70,54,22,19,12,25,15,10,0.00,40.00,13,8,24,0.00
2013-6-24,79,72,62,27,19,11,22,14,9,0.00,40.00,15,10,38,0.00
2013-6-25,82,73,63,34,29,23,29,20,15,0.00,40.00,13,8,28,0.00
2013-6-26,89,76,58,35,31,25,38,21,11,0.00,40.00,11,7,20,0.00
2013-6-27,93,79,64,35,30,25,27,18,10,0.00,40.00,12,9,22,0.00
2013-6-28,95,80,66,34,31,28,28,18,10,0.00,40.00,19,9,30,0.00
2013-6-29,92,80,70,40,36,32,31,21,14,0.00,40.00,14,6,26,0.00
2013-6-30,89,76,64,43,40,31,44,28,13,0.00,40.00,17,9,28,0.00
2013-7-1,90,78,64,43,38,32,43,25,13,0.00,40.00,19,11,31,0.00
2013-7-2,89,78,66,41,36,29,37,23,13,0.00,40.00,18,10,33,0.00
2013-7-3,90,74,62,44,35,28,46,26,11,0.00,40.00,30,11,44,0.00
2013-7-4,85,74,61,45,42,38,55,34,19,0.00,40.00,15,7,22,0.00
2013-7-5,89,77,64,51,44,37,58,33,19,0.00,40.00,23,10,38,0.00
2013-7-6,87,73,63,49,44,37,58,37,20,0.00,40.00,17,8,35,0.00
2013-7-7,88,74,59,53,44,38,72,39,18,0.00,40.00,10,6,34,0.03
2013-7-8,87,70,58,53,46,32,79,48,14,0.00,40.00,14,8,29,0.03
2013-7-9,94,79,63,42,37,30,43,24,11,0.00,40.00,11,6,22,0.00
2013-7-10,94,81,68,38,30,-100,33,17,8,0.00,40.00,12,8,24,0.00
2013-7-11,91,77,61,57,40,22,87,29,11,0.00,40.00,17,8,31,0.08
2013-7-12,85,70,59,58,54,46,92,61,26,0.00,40.00,15,6,37,0.08
2013-7-13,85,73,61,56,50,43,78,49,24,0.00,40.00,11,7,25,0.01
2013-7-14,85,74,61,54,49,45,71,44,25,0.00,40.00,13,8,22,0.00
2013-7-15,88,75,63,50,46,42,57,39,21,0.00,40.00,17,8,26,0.00
2013-7-16,85,80,71,53,50,47,46,35,28,0.00,40.00,10,8,20,0.01
2013-7-17,85,72,60,60,55,49,95,60,33,0.00,40.00,16,5,22,0.88
2013-7-18,86,70,60,59,55,51,92,61,31,0.00,40.00,17,6,26,0.11
2013-7-19,86,71,59,56,52,44,89,56,27,0.00,40.00,9,6,21,0.10
2013-7-20,88,75,63,51,46,35,66,39,15,0.00,40.00,12,5,33,0.00
2013-7-21,90,78,64,42,36,26,38,23,10,0.00,40.00,10,5,17,0.00
2013-7-22,91,80,70,47,39,31,39,25,13,0.00,40.00,13,4,21,0.00
2013-7-23,92,77,65,37,27,21,24,17,8,0.00,40.00,13,6,23,0.00
2013-7-24,83,76,69,45,39,35,36,27,22,0.00,40.00,11,4,26,0.00
2013-7-25,86,74,66,49,46,41,48,37,21,0.00,40.00,16,6,24,0.01
2013-7-26,88,75,60,47,41,34,59,34,15,0.00,40.00,15,8,24,0.01
2013-7-27,82,72,62,53,44,33,73,38,24,0.00,40.00,16,9,36,0.05
2013-7-28,75,63,57,60,55,48,95,77,48,0.00,40.00,12,5,26,0.42
2013-7-29,74,63,53,56,51,41,95,68,35,0.00,40.00,14,6,25,0.39
2013-7-30,82,69,56,50,43,31,77,44,17,0.00,40.00,11,5,20,0.01
2013-7-31,86,72,59,44,40,35,58,35,16,0.00,40.00,12,7,25,0.00
2013-8-1,74,63,58,57,49,38,94,65,28,0.00,40.00,12,6,31,0.19
2013-8-2,80,68,55,56,52,47,92,63,33,0.00,40.00,10,5,18,0.10
2013-8-3,84,72,62,53,50,42,64,48,23,0.00,40.00,8,6,19,0.01
2013-8-4,82,70,59,51,48,44,66,47,27,0.00,40.00,10,6,20,0.01
2013-8-5,80,69,60,51,47,41,68,47,26,0.00,40.00,16,8,21,0.00
2013-8-6,82,67,57,49,45,41,64,47,26,0.00,40.00,21,8,32,0.00
2013-8-7,77,64,57,48,46,36,70,54,30,0.00,40.00,18,5,28,0.04
2013-8-8,79,65,57,47,43,37,68,48,22,0.00,40.00,16,7,28,0.04
2013-8-9,81,65,55,47,42,32,67,47,19,0.00,40.00,12,7,24,0.00
2013-8-10,74,63,55,47,42,36,75,48,26,0.00,40.00,18,8,31,0.00
2013-8-11,80,66,50,46,41,34,80,46,20,0.00,40.00,9,5,18,0.00
2013-8-12,78,67,56,45,38,35,49,36,21,0.00,40.00,15,7,28,0.00
2013-8-13,82,67,53,44,40,34,67,41,18,0.00,40.00,19,8,29,0.00
2013-8-14,84,69,56,39,33,-100,51,32,14,0.00,40.00,18,9,29,0.00
2013-8-15,87,66,56,34,19,-100,42,23,9,0.00,40.00,13,8,26,0.00
2013-8-16,88,74,59,31,25,-100,31,18,9,0.00,40.00,11,7,21,0.00
2013-8-17,90,74,61,42,32,-100,31,22,12,0.00,40.00,22,8,39,0.00
2013-8-18,87,76,63,44,40,35,43,29,17,0.00,40.00,10,5,20,0.00
2013-8-19,89,72,58,46,36,-100,59,34,15,0.00,40.00,13,7,21,0.00
2013-8-20,85,73,63,49,41,-100,60,34,23,0.00,40.00,18,7,24,0.00
2013-8-21,88,71,57,50,46,39,71,45,18,0.00,40.00,14,8,28,0.00
2013-8-22,82,74,66,49,44,41,50,35,26,0.00,40.00,11,5,20,0.00
2013-8-23,81,68,60,56,49,41,71,53,31,0.00,40.00,21,8,53,0.13
2013-8-24,80,67,56,51,45,-100,79,50,25,0.00,40.00,11,5,23,0.13
2013-8-25,65,59,57,57,54,49,96,83,65,0.00,40.00,7,4,15,0.35
2013-8-26,72,64,57,58,55,54,95,76,54,0.00,40.00,6,3,16,0.25
2013-8-27,78,64,58,57,56,55,90,76,48,0.00,40.00,6,4,13,0.01
2013-8-28,84,79,72,52,46,41,50,32,23,0.00,40.00,10,7,20,0.00
2013-8-29,87,75,60,48,44,37,60,36,17,0.00,40.00,10,7,21,0.00
2013-8-30,89,74,65,51,47,43,53,39,21,0.00,40.00,13,7,20,0.04
2013-8-31,86,71,64,55,48,-100,68,46,24,0.00,40.00,14,7,24,0.20
2013-9-1,84,72,60,53,50,47,74,51,28,0.00,40.00,11,7,20,0.20
2013-9-2,84,74,65,56,49,47,61,44,29,0.00,40.00,11,5,23,0.00
2013-9-3,85,74,62,49,46,42,59,39,23,0.00,40.00,12,6,20,0.00
2013-9-4,89,77,66,48,45,40,49,34,20,0.00,40.00,9,5,19,0.00
2013-9-5,88,76,64,50,46,41,57,37,20,0.00,40.00,11,6,20,0.00
2013-9-6,87,74,60,54,46,35,75,43,16,0.00,40.00,19,9,25,0.00
2013-9-7,88,74,63,48,41,-100,55,35,15,0.00,40.00,14,8,25,0.00
2013-9-8,79,68,61,51,48,44,69,49,33,0.00,40.00,17,6,26,0.00
2013-9-9,61,57,53,56,53,51,95,87,69,0.00,40.00,7,4,20,0.99
2013-9-10,61,57,54,57,55,52,96,93,84,0.00,40.00,9,4,12,0.30
2013-9-11,66,59,56,57,55,52,96,86,61,0.00,40.00,8,5,12,0.50
2013-9-12,73,63,55,55,52,45,90,70,38,0.00,40.00,15,7,21,0.01
2013-9-13,74,62,53,54,50,46,94,68,38,0.00,40.00,10,5,18,0.00
2013-9-14,64,57,52,53,49,-100,95,78,59,0.00,40.00,10,4,21,0.46
2013-9-15,69,60,53,50,48,47,87,66,46,0.00,40.00,10,5,19,0.10
2013-9-16,74,63,51,52,48,42,87,61,34,0.00,40.00,10,6,19,0.00
2013-9-17,70,60,53,54,48,44,77,66,46,0.00,40.00,11,6,28,0.02
2013-9-18,65,59,54,51,49,47,86,70,52,0.00,40.00,14,6,18,0.11
2013-9-19,69,58,49,49,35,19,76,46,15,0.00,40.00,9,6,17,0.08
2013-9-20,73,58,42,33,30,25,63,37,18,0.00,40.00,11,7,18,0.00
2013-9-21,76,64,53,44,34,-100,50,35,24,0.00,40.00,13,7,32,0.00
2013-9-22,64,55,41,47,42,39,94,64,45,0.00,40.00,20,11,43,0.83
2013-9-23,60,50,42,42,39,36,93,70,44,0.00,40.00,7,3,13,0.03
2013-9-24,69,54,41,39,36,22,83,55,22,0.00,40.00,11,6,22,0.00
2013-9-25,72,65,59,29,26,21,31,23,15,0.00,40.00,17,12,41,0.00
2013-9-26,68,64,56,33,25,19,41,23,16,0.00,40.00,19,12,39,0.00
2013-9-27,56,43,35,41,34,27,90,70,41,0.00,40.00,14,8,39,0.28
2013-9-28,56,42,31,32,26,-100,90,60,28,0.00,40.00,7,5,14,0.02
2013-9-29,65,51,38,32,28,25,66,44,24,0.00,40.00,9,5,17,0.00
2013-9-30,70,59,46,37,28,24,51,33,20,0.00,40.00,10,5,18,0.00
2013-10-1,70,64,56,27,26,25,33,24,20,0.00,40.00,9,3,15,0.00
2013-10-2,69,60,50,32,28,23,44,30,21,0.00,40.00,10,5,21,0.00
2013-10-3,63,55,32,31,27,20,92,38,21,0.00,40.00,20,9,42,0.01
2013-10-4,39,32,27,30,25,20,92,77,58,0.00,40.00,20,6,27,0.33
2013-10-5,47,36,27,27,23,19,87,61,40,0.00,40.00,9,5,16,0.02
2013-10-6,57,42,29,33,27,22,79,57,37,0.00,40.00,9,6,13,0.00
2013-10-7,65,50,36,33,31,28,76,50,29,0.00,40.00,9,5,13,0.00
2013-10-8,66,56,46,34,27,14,58,36,18,0.00,40.00,12,6,32,0.00
2013-10-9,61,56,49,26,22,16,36,26,20,0.00,40.00,14,8,28,0.00
2013-10-10,57,43,37,39,35,25,92,76,29,0.00,40.00,15,9,32,0.70
2013-10-11,50,43,37,38,34,31,90,74,52,0.00,40.00,11,6,22,0.12
2013-10-12,55,44,35,37,31,-100,89,64,39,0.00,40.00,7,4,17,0.01
2013-10-13,61,50,38,35,32,29,69,51,32,0.00,40.00,15,6,31,0.00
2013-10-14,47,40,37,38,35,33,93,85,58,0.00,40.00,15,7,32,0.20
2013-10-15,44,37,32,35,29,23,93,73,56,0.00,40.00,13,10,20,0.05
2013-10-16,46,36,27,25,22,19,73,56,35,0.00,40.00,12,6,17,0.00
2013-10-17,50,40,29,29,22,17,79,53,27,0.00,40.00,11,6,19,0.00
2013-10-18,47,39,33,29,22,18,70,52,33,0.00,40.00,14,8,25,0.00
2013-10-19,52,40,27,24,20,-100,71,48,27,0.00,40.00,9,5,14,0.00
2013-10-20,55,44,34,26,22,18,61,42,26,0.00,40.00,6,4,11,0.00
2013-10-21,55,44,34,30,26,24,71,50,30,0.00,40.00,10,6,14,0.00
2013-10-22,60,46,32,26,24,22,68,44,25,0.00,40.00,10,5,16,0.00
2013-10-23,63,48,36,31,26,22,66,45,27,0.00,40.00,9,5,13,0.00
2013-10-24,65,50,37,28,25,20,63,40,22,0.00,40.00,10,5,20,0.00
2013-10-25,59,50,42,31,27,23,51,41,31,0.00,40.00,10,5,18,0.00
2013-10-26,62,49,38,32,27,-100,64,46,27,0.00,40.00,9,5,12,0.00
2013-10-27,59,49,39,30,27,22,55,42,32,0.00,40.00,7,4,14,0.00
2013-10-28,60,53,44,28,21,-100,54,31,19,0.00,40.00,15,10,40,0.00
2013-10-29,52,39,32,36,29,18,93,75,26,0.00,40.00,29,8,42,0.44
2013-10-30,37,34,32,32,30,28,93,88,76,0.00,40.00,7,5,20,0.51
2013-10-31,38,34,31,31,29,26,92,81,69,0.00,40.00,9,4,13,0.42
2013-11-1,47,40,33,33,28,25,76,63,52,0.00,40.00,7,3,12,0.01
2013-11-2,53,39,29,32,26,-100,84,61,39,0.00,40.00,9,5,13,0.00
2013-11-3,54,44,28,26,22,14,84,43,29,0.00,40.00,15,9,41,0.01
2013-11-4,36,29,23,25,18,12,89,63,50,0.00,40.00,13,6,19,0.01
2013-11-5,34,27,21,23,14,9,89,59,40,0.00,40.00,16,7,21,0.03
2013-11-6,41,29,17,17,14,10,73,54,36,0.00,40.00,8,4,14,0.01
2013-11-7,48,36,25,22,19,16,72,51,34,0.00,40.00,8,5,14,0.00
2013-11-8,53,44,37,28,20,18,50,39,28,0.00,40.00,8,5,15,0.00
2013-11-9,56,44,36,25,21,-100,51,41,29,0.00,40.00,6,4,9,0.00
2013-11-10,57,46,36,24,20,14,56,38,22,0.00,40.00,8,5,13,0.00
2013-11-11,59,45,33,25,22,19,58,41,25,0.00,40.00,7,4,11,0.00
2013-11-12,59,45,34,24,22,11,61,41,19,0.00,40.00,10,6,14,0.00
2013-11-13,51,42,33,24,21,17,52,42,34,0.00,40.00,9,4,11,0.00
2013-11-14,51,42,36,27,22,15,65,47,26,0.00,40.00,10,6,17,0.00
2013-11-15,48,41,33,30,22,15,83,49,32,0.00,40.00,14,8,27,0.00
2013-11-16,40,35,32,31,26,-100,91,74,57,0.00,40.00,18,6,33,0.03
2013-11-17,47,39,33,28,25,21,76,58,45,0.00,40.00,8,4,19,0.02
2013-11-18,51,38,29,27,25,23,81,60,35,0.00,40.00,8,4,11,0.00
2013-11-19,47,39,31,33,27,21,81,63,47,0.00,40.00,6,4,13,0.01
2013-11-20,44,38,33,35,32,30,92,79,67,0.00,40.00,6,3,9,0.06
2013-11-21,39,32,22,36,29,15,93,89,73,0.00,40.00,22,8,28,0.46
2013-11-22,29,25,21,27,19,14,91,77,69,0.00,40.00,19,12,27,0.01
2013-11-23,32,30,28,30,27,-100,92,91,90,0.00,40.00,10,6,16,0.21
2013-11-24,34,31,28,32,29,26,93,92,88,0.00,40.00,9,4,14,0.10
2013-11-25,39,30,23,30,25,19,92,80,68,0.00,40.00,11,4,18,0.03
2013-11-26,39,30,23,26,23,19,88,75,56,0.00,40.00,9,4,12,0.03
2013-11-27,41,31,22,26,22,18,87,72,53,0.00,40.00,9,4,11,0.00
2013-11-28,43,31,24,26,24,20,90,76,50,0.00,40.00,6,3,10,0.01
2013-11-29,30,27,26,27,25,23,91,90,88,0.00,40.00,7,2,10,0.01
2013-11-30,29,26,25,26,23,-100,91,89,88,0.00,40.00,5,2,9,0.01
2013-12-1,28,27,26,25,24,23,91,90,88,0.00,40.00,6,3,12,0.01
2013-12-2,27,26,25,24,23,22,91,90,89,0.00,40.00,7,3,11,0.00
2013-12-3,39,30,22,29,24,19,92,81,52,0.00,40.00,12,5,27,0.00
2013-12-4,22,10,-2,19,5,-9,87,79,73,0.00,40.00,15,9,20,0.00
2013-12-5,17,3,-6,10,-4,-13,77,73,67,0.00,40.00,9,4,12,0.03
2013-12-6,20,6,-1,13,0,-7,79,75,70,0.00,40.00,6,3,8,0.05
2013-12-7,21,14,5,17,8,-100,85,80,77,0.00,40.00,9,5,18,0.01
2013-12-8,18,13,6,14,7,0,85,77,68,0.00,40.00,17,8,27,0.00
2013-12-9,16,7,0,3,-2,-7,75,65,54,0.00,40.00,7,3,10,0.02
2013-12-10,17,8,-2,3,-3,-9,71,62,52,0.00,40.00,6,3,9,0.05
2013-12-11,29,15,5,11,3,-3,69,59,42,0.00,40.00,9,5,11,0.17
2013-12-12,31,19,10,12,8,4,75,61,43,0.00,40.00,8,4,11,0.04
2013-12-13,37,21,14,17,11,8,79,66,44,0.00,40.00,7,4,13,0.01
2013-12-14,35,25,19,17,12,-100,71,61,45,0.00,40.00,7,3,13,0.01
2013-12-15,37,25,17,19,14,12,80,65,46,0.00,40.00,7,4,10,0.00
2013-12-16,40,28,19,21,16,14,80,63,43,0.00,40.00,9,5,12,0.00
2013-12-17,49,31,21,23,18,15,80,60,30,0.00,40.00,9,4,12,0.00
2013-12-18,44,31,24,23,20,17,75,63,43,0.00,40.00,5,3,10,0.00
2013-12-19,44,34,24,23,21,18,84,61,42,0.00,40.00,9,4,15,0.00
2013-12-20,35,30,23,26,23,16,88,75,63,0.00,40.00,8,3,13,0.00
2013-12-21,31,24,20,22,17,-100,88,78,67,0.00,40.00,9,3,13,0.02
2013-12-22,32,24,18,16,14,11,77,66,49,0.00,40.00,8,4,18,0.01
2013-12-23,38,29,22,20,16,13,73,60,45,0.00,40.00,7,3,12,0.00
2013-12-24,36,28,18,23,16,8,71,62,50,0.00,40.00,12,6,20,0.00
2013-12-25,30,20,11,10,7,4,78,58,39,0.00,40.00,9,7,13,0.00
2013-12-26,36,22,14,10,6,3,65,50,31,0.00,40.00,9,6,15,0.00
2013-12-27,37,27,20,15,12,8,61,51,38,0.00,40.00,8,6,15,0.00
2013-12-28,41,29,21,19,15,-100,73,57,41,0.00,40.00,12,4,18,0.00
2013-12-29,34,26,19,18,12,6,69,57,30,0.00,40.00,18,8,23,0.00
2013-12-30,35,25,18,14,12,10,75,58,37,0.00,40.00,7,3,9,0.00
2013-12-31,39,29,20,18,14,11,71,54,42,0.00,40.00,9,3,14,0.00
2014-1-1,45,32,25,22,16,12,64,52,40,0.00,40.00,9,4,15,0.00
2014-1-2,41,28,17,18,12,8,72,53,33,0.00,40.00,9,4,15,0.00